Dolphin — WTD6974 — position and weather

sailwx.info

Track history (hours):
 
Tides and Currents Weather Stations Pressure Air Temp Water Temp Dewpoint Dewpoint Depression Visibility Wind Speed Wind Dir Waves Ship Positions

Dolphin

Owner: PENN MARITIME INC, Seattle, WA. More information available from US FCC via Universal Licensing System and Coast Guard Vessel Documentation Center.

Last reported at 2016-Feb-05 05:30 UTC. Time now 2016-Feb-10 12:58 UTC.
Position N 40°32' W 074°01'.

Length 41 m; draft 9.9 m.

Type: Towing. MMSI: 366920980.

Date/timePositionNaut miles runAvg speedWind from/ knotsBaromVisibWave heightAir tempDewpointWater temp
2016-Feb-05 05:30N 40°32' W 074°01'6 6.7
2016-Feb-05 04:33N 40°38' W 074°04'2 2.5
2016-Feb-05 03:33N 40°39' W 074°07'0 0.0
2016-Feb-05 02:26N 40°39' W 074°07'0 0.0
2016-Feb-05 01:33N 40°39' W 074°07'0 0.0
2016-Feb-05 00:33N 40°39' W 074°07'0 0.0
2016-Feb-04 23:32N 40°39' W 074°07'0 0.0
2016-Feb-04 22:33N 40°39' W 074°07'3 2.0
2016-Feb-04 21:18N 40°38' W 074°10'0 0.0
2016-Feb-04 20:17N 40°38' W 074°10'0 0.0
2016-Feb-04 19:33N 40°38' W 074°10'0 0.0
2016-Feb-04 18:30N 40°38' W 074°10'0 0.0
2016-Feb-04 17:33N 40°38' W 074°10'0 0.0
2016-Feb-04 16:33N 40°38' W 074°10'3 1.9
2016-Feb-04 15:15N 40°39' W 074°07'0 0.0
2016-Feb-04 14:30N 40°39' W 074°07'0 0.0
2016-Feb-04 12:28N 40°39' W 074°07'1 0.7
2016-Feb-04 11:33N 40°39' W 074°07'2 1.9
2016-Feb-04 10:33N 40°39' W 074°10'0 0.0
2016-Feb-04 09:31N 40°39' W 074°10'0 0.0
2016-Feb-04 08:33N 40°39' W 074°10'0 0.0
2016-Feb-04 07:33N 40°39' W 074°10'0 0.0
2016-Feb-04 06:33N 40°39' W 074°10'0 0.0
2016-Feb-03 23:12N 40°39' W 074°10'1 1.6
2016-Feb-03 22:31N 40°39' W 074°08'1 1.5
2016-Feb-03 21:33N 40°39' W 074°07'0 0.5
2016-Feb-03 20:33N 40°39' W 074°06'2 2.3
2016-Feb-03 19:33N 40°39' W 074°03'0 0.0
2016-Feb-03 18:33N 40°39' W 074°03'0 0.0
2016-Feb-03 17:33N 40°39' W 074°03'0 0.2
2016-Feb-03 16:33N 40°38' W 074°03'0 0.0
2016-Feb-03 15:33N 40°38' W 074°03'3 3.1
2016-Feb-03 14:33N 40°35' W 074°02'3 2.5
2016-Feb-03 13:28N 40°33' W 074°01'  
Track history (hours):
 
Tides and Currents Weather Stations Pressure Air Temp Water Temp Dewpoint Dewpoint Depression Visibility Wind Speed Wind Dir Waves Ship Positions

Dolphin

Owner: PENN MARITIME INC, Seattle, WA. More information available from US FCC via Universal Licensing System and Coast Guard Vessel Documentation Center.

Last reported at 2016-Feb-05 05:30 UTC. Time now 2016-Feb-10 12:58 UTC.
Position N 40°32' W 074°01'.

Length 41 m; draft 9.9 m.

Type: Towing. MMSI: 366920980.

Date/timePositionNaut miles runAvg speedWind from/ knotsBaromVisibWave heightAir tempDewpointWater temp
2016-Feb-05 05:30N 40°32' W 074°01'6 6.7
2016-Feb-05 04:33N 40°38' W 074°04'2 2.5
2016-Feb-05 03:33N 40°39' W 074°07'0 0.0
2016-Feb-05 02:26N 40°39' W 074°07'0 0.0
2016-Feb-05 01:33N 40°39' W 074°07'0 0.0
2016-Feb-05 00:33N 40°39' W 074°07'0 0.0
2016-Feb-04 23:32N 40°39' W 074°07'0 0.0
2016-Feb-04 22:33N 40°39' W 074°07'3 2.0
2016-Feb-04 21:18N 40°38' W 074°10'0 0.0
2016-Feb-04 20:17N 40°38' W 074°10'0 0.0
2016-Feb-04 19:33N 40°38' W 074°10'0 0.0
2016-Feb-04 18:30N 40°38' W 074°10'0 0.0
2016-Feb-04 17:33N 40°38' W 074°10'0 0.0
2016-Feb-04 16:33N 40°38' W 074°10'3 1.9
2016-Feb-04 15:15N 40°39' W 074°07'0 0.0
2016-Feb-04 14:30N 40°39' W 074°07'0 0.0
2016-Feb-04 12:28N 40°39' W 074°07'1 0.7
2016-Feb-04 11:33N 40°39' W 074°07'2 1.9
2016-Feb-04 10:33N 40°39' W 074°10'0 0.0
2016-Feb-04 09:31N 40°39' W 074°10'0 0.0
2016-Feb-04 08:33N 40°39' W 074°10'0 0.0
2016-Feb-04 07:33N 40°39' W 074°10'0 0.0
2016-Feb-04 06:33N 40°39' W 074°10'0 0.0
2016-Feb-03 23:12N 40°39' W 074°10'1 1.6
2016-Feb-03 22:31N 40°39' W 074°08'1 1.5
2016-Feb-03 21:33N 40°39' W 074°07'0 0.5
2016-Feb-03 20:33N 40°39' W 074°06'2 2.3
2016-Feb-03 19:33N 40°39' W 074°03'0 0.0
2016-Feb-03 18:33N 40°39' W 074°03'0 0.0
2016-Feb-03 17:33N 40°39' W 074°03'0 0.2
2016-Feb-03 16:33N 40°38' W 074°03'0 0.0
2016-Feb-03 15:33N 40°38' W 074°03'3 3.1
2016-Feb-03 14:33N 40°35' W 074°02'3 2.5
2016-Feb-03 13:28N 40°33' W 074°01'  

Dump ship's entire track history